Time,TemperatureF,DewpointF,PressureIn,WindDirection,WindDirectionDegrees,WindSpeedMPH,WindSpeedGustMPH,Humidity,HourlyPrecipIn,Conditions,Clouds,dailyrainin,SoftwareType,DateUTC
2013-05-24 00:01:00,73.3,71.5,30.00,North,5,0.0,3.0,94,0.00,,,0.00,Wunderground v.1.15,2013-05-24 04:01:00,
2013-05-24 00:02:00,73.3,71.5,30.01,North,5,0.0,3.0,94,0.00,,,0.00,Wunderground v.1.15,2013-05-24 04:02:00,
2013-05-24 00:04:00,73.3,71.5,30.00,North,5,0.0,3.0,94,0.00,,,0.00,Wunderground v.1.15,2013-05-24 04:04:00,
2013-05-24 00:06:00,73.2,71.4,30.00,North,5,0.0,3.0,94,0.00,,,0.00,Wunderground v.1.15,2013-05-24 04:06:00,
2013-05-24 00:11:00,73.2,71.7,30.00,North,5,0.0,3.0,95,0.00,,,0.00,Wunderground v.1.15,2013-05-24 04:11:00,
2013-05-24 00:14:00,73.3,71.8,30.01,North,5,0.0,3.0,95,0.00,,,0.00,Wunderground v.1.15,2013-05-24 04:14:00,
2013-05-24 00:19:00,73.5,72.0,30.01,North,5,0.0,3.0,95,0.00,,,0.00,Wunderground v.1.15,2013-05-24 04:19:00,
2013-05-24 00:24:00,73.6,72.1,30.00,North,5,0.0,3.0,95,0.00,,,0.00,Wunderground v.1.15,2013-05-24 04:24:00,
2013-05-24 00:29:00,73.7,72.2,30.00,North,5,0.0,3.0,95,0.00,,,0.00,Wunderground v.1.15,2013-05-24 04:29:00,
2013-05-24 00:35:00,73.8,72.3,30.01,North,5,0.0,3.0,95,0.00,,,0.00,Wunderground v.1.15,2013-05-24 04:35:00,
2013-05-24 00:41:00,73.9,72.4,30.00,North,5,0.0,3.0,95,0.00,,,0.00,Wunderground v.1.15,2013-05-24 04:41:00,
2013-05-24 00:46:00,74.0,72.5,30.01,North,5,0.0,3.0,95,0.00,,,0.00,Wunderground v.1.15,2013-05-24 04:46:00,
2013-05-24 00:51:00,74.0,72.5,30.01,West,271,0.0,3.0,95,0.00,,,0.00,Wunderground v.1.15,2013-05-24 04:51:00,
2013-05-24 00:56:00,74.1,72.6,30.01,SE,135,0.0,3.0,95,0.00,,,0.00,Wunderground v.1.15,2013-05-24 04:56:00,
2013-05-24 01:02:00,74.2,72.7,30.01,SE,135,0.0,3.0,95,0.00,,,0.00,Wunderground v.1.15,2013-05-24 05:02:00,
2013-05-24 01:08:00,74.3,72.8,30.00,SE,135,0.0,3.0,95,0.00,,,0.00,Wunderground v.1.15,2013-05-24 05:08:00,
2013-05-24 01:13:00,74.4,72.6,30.00,SE,135,0.0,3.0,94,0.00,,,0.00,Wunderground v.1.15,2013-05-24 05:13:00,
2013-05-24 01:19:00,74.5,72.7,30.00,NNW,348,0.0,3.0,94,0.00,,,0.00,Wunderground v.1.15,2013-05-24 05:19:00,
2013-05-24 01:24:00,74.6,72.4,30.00,NNW,330,0.0,3.0,93,0.00,,,0.00,Wunderground v.1.15,2013-05-24 05:24:00,
2013-05-24 01:30:00,74.7,72.5,30.00,North,352,0.0,3.0,93,0.00,,,0.00,Wunderground v.1.15,2013-05-24 05:30:00,
2013-05-24 01:35:00,74.7,72.5,30.00,North,352,0.0,3.0,93,0.00,,,0.00,Wunderground v.1.15,2013-05-24 05:35:00,
2013-05-24 01:40:00,74.7,72.2,30.00,North,352,0.0,3.0,92,0.00,,,0.00,Wunderground v.1.15,2013-05-24 05:40:00,
2013-05-24 01:45:00,74.6,72.1,30.00,North,352,0.0,3.0,92,0.00,,,0.00,Wunderground v.1.15,2013-05-24 05:45:00,
2013-05-24 01:51:00,74.4,71.9,30.00,North,352,0.0,3.0,92,0.00,,,0.00,Wunderground v.1.15,2013-05-24 05:51:00,
2013-05-24 01:57:00,74.3,71.5,30.00,North,353,0.0,3.0,91,0.00,,,0.00,Wunderground v.1.15,2013-05-24 05:57:00,
2013-05-24 02:02:00,74.2,71.4,30.00,North,8,0.0,1.0,91,0.00,,,0.00,Wunderground v.1.15,2013-05-24 06:02:00,
2013-05-24 02:08:00,74.2,71.4,29.99,North,8,0.0,1.0,91,0.00,,,0.00,Wunderground v.1.15,2013-05-24 06:08:00,
2013-05-24 02:13:00,74.2,71.4,29.99,North,8,0.0,1.0,91,0.00,,,0.00,Wunderground v.1.15,2013-05-24 06:13:00,
2013-05-24 02:19:00,74.0,71.2,29.99,North,8,0.0,1.0,91,0.00,,,0.00,Wunderground v.1.15,2013-05-24 06:19:00,
2013-05-24 02:24:00,73.9,71.1,29.99,North,8,0.0,1.0,91,0.00,,,0.00,Wunderground v.1.15,2013-05-24 06:24:00,
2013-05-24 02:29:00,73.9,71.1,29.99,NE,46,0.0,1.0,91,0.00,,,0.00,Wunderground v.1.15,2013-05-24 06:29:00,
2013-05-24 02:35:00,73.9,70.8,29.99,NE,46,0.0,1.0,90,0.00,,,0.00,Wunderground v.1.15,2013-05-24 06:35:00,
2013-05-24 02:40:00,73.7,70.6,29.98,NE,46,0.0,1.0,90,0.00,,,0.00,Wunderground v.1.15,2013-05-24 06:40:00,
2013-05-24 02:46:00,73.5,70.4,29.99,NE,46,0.0,1.0,90,0.00,,,0.00,Wunderground v.1.15,2013-05-24 06:46:00,
2013-05-24 02:51:00,73.3,70.2,29.99,NE,45,0.0,1.0,90,0.00,,,0.00,Wunderground v.1.15,2013-05-24 06:51:00,
2013-05-24 02:57:00,73.1,70.3,29.99,NE,46,0.0,1.0,91,0.00,,,0.00,Wunderground v.1.15,2013-05-24 06:57:00,
2013-05-24 03:03:00,73.0,70.2,29.99,NE,44,0.0,1.0,91,0.00,,,0.00,Wunderground v.1.15,2013-05-24 07:03:00,
2013-05-24 03:08:00,73.2,70.7,29.98,NE,44,0.0,1.0,92,0.00,,,0.00,Wunderground v.1.15,2013-05-24 07:08:00,
2013-05-24 03:14:00,73.5,71.4,29.98,NNE,23,0.0,1.0,93,0.00,,,0.00,Wunderground v.1.15,2013-05-24 07:14:00,
2013-05-24 03:19:00,73.9,71.7,29.98,ENE,71,0.0,1.0,93,0.00,,,0.00,Wunderground v.1.15,2013-05-24 07:19:00,
2013-05-24 03:24:00,74.0,71.5,29.98,ENE,71,0.0,1.0,92,0.00,,,0.00,Wunderground v.1.15,2013-05-24 07:24:00,
2013-05-24 03:30:00,74.2,71.7,29.98,NE,48,0.0,1.0,92,0.00,,,0.00,Wunderground v.1.15,2013-05-24 07:30:00,
2013-05-24 03:36:00,74.2,71.7,29.98,ENE,72,0.0,1.0,92,0.00,,,0.00,Wunderground v.1.15,2013-05-24 07:36:00,
2013-05-24 03:42:00,74.3,71.5,29.98,NNE,23,0.0,1.0,91,0.00,,,0.00,Wunderground v.1.15,2013-05-24 07:42:00,
2013-05-24 03:47:00,74.4,71.6,29.98,ENE,61,0.0,1.0,91,0.00,,,0.00,Wunderground v.1.15,2013-05-24 07:47:00,
2013-05-24 03:53:00,74.6,71.8,29.98,NE,55,0.0,1.0,91,0.00,,,0.00,Wunderground v.1.15,2013-05-24 07:53:00,
2013-05-24 03:59:00,74.6,71.8,29.98,ESE,108,0.0,1.0,91,0.00,,,0.00,Wunderground v.1.15,2013-05-24 07:59:00,
2013-05-24 04:04:00,74.6,72.1,29.98,East,86,0.0,1.0,92,0.00,,,0.00,Wunderground v.1.15,2013-05-24 08:04:00,
2013-05-24 04:10:00,74.6,71.8,29.98,East,87,0.0,1.0,91,0.00,,,0.00,Wunderground v.1.15,2013-05-24 08:10:00,
2013-05-24 04:16:00,74.5,72.0,29.98,East,87,0.0,1.0,92,0.00,,,0.00,Wunderground v.1.15,2013-05-24 08:16:00,
2013-05-24 04:21:00,74.4,71.9,29.98,East,87,0.0,1.0,92,0.00,,,0.00,Wunderground v.1.15,2013-05-24 08:21:00,
2013-05-24 04:26:00,74.2,71.7,29.98,East,94,0.0,1.0,92,0.00,,,0.00,Wunderground v.1.15,2013-05-24 08:26:00,
2013-05-24 04:31:00,74.2,72.0,29.98,ESE,121,0.0,1.0,93,0.00,,,0.00,Wunderground v.1.15,2013-05-24 08:31:00,
2013-05-24 04:36:00,74.2,71.7,29.98,ESE,121,0.0,1.0,92,0.00,,,0.00,Wunderground v.1.15,2013-05-24 08:36:00,
2013-05-24 04:41:00,74.1,71.6,29.98,ESE,120,0.0,1.0,92,0.00,,,0.00,Wunderground v.1.15,2013-05-24 08:41:00,
2013-05-24 04:47:00,74.0,71.5,29.98,ESE,120,0.0,1.0,92,0.00,,,0.00,Wunderground v.1.15,2013-05-24 08:47:00,
2013-05-24 04:52:00,74.0,71.8,29.98,West,271,0.0,1.0,93,0.00,,,0.00,Wunderground v.1.15,2013-05-24 08:52:00,
2013-05-24 04:57:00,73.9,71.7,29.98,West,271,0.0,1.0,93,0.00,,,0.00,Wunderground v.1.15,2013-05-24 08:57:00,
2013-05-24 05:03:00,73.9,71.7,29.98,West,271,0.0,1.0,93,0.00,,,0.00,Wunderground v.1.15,2013-05-24 09:03:00,
2013-05-24 05:08:00,73.8,71.6,29.98,West,271,0.0,1.0,93,0.00,,,0.00,Wunderground v.1.15,2013-05-24 09:08:00,
2013-05-24 05:14:00,73.8,71.6,29.99,West,275,0.0,1.0,93,0.00,,,0.00,Wunderground v.1.15,2013-05-24 09:14:00,
2013-05-24 05:20:00,73.8,71.6,29.99,NNW,340,0.0,1.0,93,0.00,,,0.00,Wunderground v.1.15,2013-05-24 09:20:00,
2013-05-24 05:25:00,73.9,72.1,29.99,SSE,150,0.0,1.0,94,0.00,,,0.00,Wunderground v.1.15,2013-05-24 09:25:00,
2013-05-24 05:31:00,73.9,71.7,29.99,SSE,161,0.0,1.0,93,0.00,,,0.00,Wunderground v.1.15,2013-05-24 09:31:00,
2013-05-24 05:37:00,74.1,72.3,29.99,SSE,160,0.0,1.0,94,0.00,,,0.00,Wunderground v.1.15,2013-05-24 09:37:00,
2013-05-24 05:43:00,74.1,71.9,29.99,NW,307,0.0,1.0,93,0.00,,,0.00,Wunderground v.1.15,2013-05-24 09:43:00,
2013-05-24 05:48:00,74.2,72.0,29.99,NE,47,0.0,1.0,93,0.00,,,0.00,Wunderground v.1.15,2013-05-24 09:48:00,
2013-05-24 05:53:00,74.3,72.1,30.00,WSW,247,0.0,1.0,93,0.00,,,0.00,Wunderground v.1.15,2013-05-24 09:53:00,
2013-05-24 05:58:00,74.3,71.8,30.00,NE,38,0.0,1.0,92,0.00,,,0.00,Wunderground v.1.15,2013-05-24 09:58:00,
2013-05-24 06:03:00,74.5,72.0,30.00,North,352,0.0,1.0,92,0.00,,,0.00,Wunderground v.1.15,2013-05-24 10:03:00,
2013-05-24 06:09:00,74.6,72.1,30.00,NE,44,0.0,1.0,92,0.00,,,0.00,Wunderground v.1.15,2013-05-24 10:09:00,
2013-05-24 06:14:00,74.7,72.2,30.00,NE,47,0.0,1.0,92,0.00,,,0.00,Wunderground v.1.15,2013-05-24 10:14:00,
2013-05-24 06:20:00,74.7,72.2,30.00,NNE,27,0.0,1.0,92,0.00,,,0.00,Wunderground v.1.15,2013-05-24 10:20:00,
2013-05-24 06:25:00,74.7,72.2,30.01,East,90,0.0,1.0,92,0.00,,,0.00,Wunderground v.1.15,2013-05-24 10:25:00,
2013-05-24 06:31:00,74.8,72.3,30.01,ESE,105,0.0,1.0,92,0.00,,,0.00,Wunderground v.1.15,2013-05-24 10:31:00,
2013-05-24 06:36:00,74.8,72.3,30.01,ENE,61,0.0,1.0,92,0.00,,,0.00,Wunderground v.1.15,2013-05-24 10:36:00,
2013-05-24 06:41:00,74.8,72.3,30.01,SE,143,0.0,1.0,92,0.00,,,0.00,Wunderground v.1.15,2013-05-24 10:41:00,
2013-05-24 06:47:00,74.8,72.3,30.01,East,98,0.0,1.0,92,0.00,,,0.00,Wunderground v.1.15,2013-05-24 10:47:00,
2013-05-24 06:52:00,74.7,72.0,30.02,East,98,0.0,0.0,92,0.00,,,0.00,weatherlink.com 1.10,2013-05-24 10:52:00,
2013-05-24 06:58:00,74.6,72.1,30.01,SE,139,0.0,1.0,92,0.00,,,0.00,Wunderground v.1.15,2013-05-24 10:58:00,
2013-05-24 07:03:00,74.6,72.1,30.02,SW,222,0.0,1.0,92,0.00,,,0.00,Wunderground v.1.15,2013-05-24 11:03:00,
2013-05-24 07:08:00,74.7,72.0,30.02,ESE,113,0.0,1.0,92,0.00,,,0.00,weatherlink.com 1.10,2013-05-24 11:08:00,
2013-05-24 07:14:00,75.2,72.4,30.02,NE,55,0.0,1.0,91,0.00,,,0.00,Wunderground v.1.15,2013-05-24 11:14:00,
2013-05-24 07:20:00,76.2,73.1,30.02,ENE,72,0.0,1.0,90,0.00,,,0.00,Wunderground v.1.15,2013-05-24 11:20:00,
2013-05-24 07:25:00,77.0,73.2,30.02,NE,46,0.0,1.0,88,0.00,,,0.00,Wunderground v.1.15,2013-05-24 11:25:00,
2013-05-24 07:31:00,77.9,73.4,30.03,ENE,61,0.0,1.0,86,0.00,,,0.00,Wunderground v.1.15,2013-05-24 11:31:00,
2013-05-24 07:36:00,78.4,73.9,30.03,SE,135,0.0,1.0,86,0.00,,,0.00,Wunderground v.1.15,2013-05-24 11:36:00,
2013-05-24 07:42:00,78.7,73.8,30.03,NE,51,1.0,3.0,85,0.00,,,0.00,Wunderground v.1.15,2013-05-24 11:42:00,
2013-05-24 07:48:00,79.1,74.2,30.03,ENE,60,1.0,3.0,85,0.00,,,0.00,Wunderground v.1.15,2013-05-24 11:48:00,
2013-05-24 07:53:00,79.8,74.5,30.03,North,5,1.0,1.0,84,0.00,,,0.00,Wunderground v.1.15,2013-05-24 11:53:00,
2013-05-24 07:59:00,80.4,74.8,30.03,NW,304,0.0,1.0,83,0.00,,,0.00,Wunderground v.1.15,2013-05-24 11:59:00,
2013-05-24 08:04:00,81.1,75.1,30.03,NNW,329,0.0,1.0,82,0.00,,,0.00,Wunderground v.1.15,2013-05-24 12:04:00,
2013-05-24 08:09:00,81.5,75.1,30.03,ENE,62,0.0,1.0,81,0.00,,,0.00,Wunderground v.1.15,2013-05-24 12:09:00,
2013-05-24 08:15:00,81.7,75.3,30.03,ENE,70,1.0,2.0,81,0.00,,,0.00,Wunderground v.1.15,2013-05-24 12:15:00,
2013-05-24 08:20:00,81.6,74.8,30.03,West,272,1.0,1.0,80,0.00,,,0.00,Wunderground v.1.15,2013-05-24 12:20:00,
2013-05-24 08:26:00,81.9,75.1,30.03,NE,43,1.0,2.0,80,0.00,,,0.00,Wunderground v.1.15,2013-05-24 12:26:00,
2013-05-24 08:31:00,81.9,75.5,30.03,NNE,31,1.0,1.0,81,0.00,,,0.00,Wunderground v.1.15,2013-05-24 12:31:00,
2013-05-24 08:37:00,81.6,74.8,30.03,NNE,30,1.0,3.0,80,0.00,,,0.00,Wunderground v.1.15,2013-05-24 12:37:00,
2013-05-24 08:42:00,80.8,74.8,30.03,NE,39,1.0,3.0,82,0.00,,,0.00,Wunderground v.1.15,2013-05-24 12:42:00,
2013-05-24 08:48:00,81.6,75.2,30.03,North,11,1.0,3.0,81,0.00,,,0.00,Wunderground v.1.15,2013-05-24 12:48:00,
2013-05-24 08:53:00,81.4,74.6,30.03,SSE,162,2.0,5.0,80,0.00,,,0.00,Wunderground v.1.15,2013-05-24 12:53:00,
2013-05-24 08:58:00,81.7,74.9,30.04,NNE,32,1.0,5.0,80,0.00,,,0.00,Wunderground v.1.15,2013-05-24 12:58:00,
2013-05-24 09:04:00,81.6,75.2,30.05,ESE,118,1.0,2.0,81,0.00,,,0.00,Wunderground v.1.15,2013-05-24 13:04:00,
2013-05-24 09:09:00,81.6,75.2,30.05,NE,45,1.0,4.0,81,0.00,,,0.00,Wunderground v.1.15,2013-05-24 13:09:00,
2013-05-24 09:15:00,81.5,75.1,30.05,NNE,20,1.0,2.0,81,0.00,,,0.00,Wunderground v.1.15,2013-05-24 13:15:00,
2013-05-24 09:20:00,81.2,74.8,30.05,NNE,31,2.0,3.0,81,0.00,,,0.00,Wunderground v.1.15,2013-05-24 13:20:00,
2013-05-24 09:26:00,81.4,74.6,30.05,NE,53,3.0,7.0,80,0.00,,,0.00,Wunderground v.1.15,2013-05-24 13:26:00,
2013-05-24 09:31:00,81.5,75.8,30.05,ENE,62,2.0,4.0,83,0.00,,,0.00,Wunderground v.1.15,2013-05-24 13:31:00,
2013-05-24 09:36:00,82.8,76.4,30.05,NNE,25,2.0,4.0,81,0.00,,,0.00,Wunderground v.1.15,2013-05-24 13:36:00,
2013-05-24 09:42:00,83.3,76.1,30.05,East,84,0.0,1.0,79,0.00,,,0.00,Wunderground v.1.15,2013-05-24 13:42:00,
2013-05-24 09:48:00,83.6,76.0,30.05,NE,56,1.0,2.0,78,0.00,,,0.00,Wunderground v.1.15,2013-05-24 13:48:00,
2013-05-24 09:53:00,83.7,75.3,30.05,NNE,30,1.0,6.0,76,0.00,,,0.00,Wunderground v.1.15,2013-05-24 13:53:00,
2013-05-24 09:59:00,83.6,76.0,30.05,NE,43,2.0,6.0,78,0.00,,,0.00,Wunderground v.1.15,2013-05-24 13:59:00,
2013-05-24 10:04:00,83.8,75.8,30.05,NNE,25,2.0,5.0,77,0.00,,,0.00,Wunderground v.1.15,2013-05-24 14:04:00,
2013-05-24 10:09:00,83.9,75.1,30.05,ENE,59,2.0,5.0,75,0.00,,,0.00,Wunderground v.1.15,2013-05-24 14:09:00,
2013-05-24 10:15:00,84.3,76.3,30.05,NE,51,2.0,4.0,77,0.00,,,0.00,Wunderground v.1.15,2013-05-24 14:15:00,
2013-05-24 10:20:00,84.7,76.3,30.05,NE,52,1.0,4.0,76,0.00,,,0.00,Wunderground v.1.15,2013-05-24 14:20:00,
2013-05-24 10:26:00,85.5,77.1,30.05,ENE,57,1.0,4.0,76,0.00,,,0.00,Wunderground v.1.15,2013-05-24 14:26:00,
2013-05-24 10:31:00,86.1,77.2,30.05,WNW,288,1.0,4.0,75,0.00,,,0.00,Wunderground v.1.15,2013-05-24 14:31:00,
2013-05-24 10:36:00,85.9,75.0,30.05,NNE,27,3.0,6.0,71,0.00,,,0.00,weatherlink.com 1.10,2013-05-24 14:36:00,
2013-05-24 10:42:00,85.6,76.4,30.05,North,11,2.0,5.0,74,0.00,,,0.00,Wunderground v.1.15,2013-05-24 14:42:00,
2013-05-24 10:48:00,86.0,76.3,30.06,ESE,103,1.0,5.0,73,0.00,,,0.00,Wunderground v.1.15,2013-05-24 14:48:00,
2013-05-24 10:53:00,86.3,77.4,30.06,NE,54,1.0,4.0,75,0.00,,,0.00,Wunderground v.1.15,2013-05-24 14:53:00,
2013-05-24 10:59:00,86.1,76.4,30.06,NE,56,2.0,8.0,73,0.00,,,0.00,Wunderground v.1.15,2013-05-24 14:59:00,
2013-05-24 11:05:00,85.1,77.1,30.05,NE,56,3.0,7.0,77,0.00,,,0.00,Wunderground v.1.15,2013-05-24 15:05:00,
2013-05-24 11:11:00,85.6,77.6,30.05,ENE,66,2.0,4.0,77,0.00,,,0.00,Wunderground v.1.15,2013-05-24 15:11:00,
2013-05-24 11:17:00,86.1,76.8,30.05,ENE,57,2.0,4.0,74,0.00,,,0.00,Wunderground v.1.15,2013-05-24 15:17:00,
2013-05-24 11:22:00,87.0,78.1,30.05,NNE,25,2.0,4.0,75,0.00,,,0.00,Wunderground v.1.15,2013-05-24 15:22:00,
2013-05-24 11:27:00,87.3,77.6,30.06,NNE,31,2.0,5.0,73,0.00,,,0.00,Wunderground v.1.15,2013-05-24 15:27:00,
2013-05-24 11:32:00,87.7,78.8,30.06,ENE,72,2.0,4.0,75,0.00,,,0.00,Wunderground v.1.15,2013-05-24 15:32:00,
2013-05-24 11:38:00,87.9,76.5,30.06,ENE,77,1.0,5.0,69,0.00,,,0.00,Wunderground v.1.15,2013-05-24 15:38:00,
2013-05-24 11:43:00,87.8,78.1,30.06,South,190,1.0,4.0,73,0.00,,,0.00,Wunderground v.1.15,2013-05-24 15:43:00,
2013-05-24 11:48:00,88.2,77.6,30.06,NNE,28,1.0,4.0,71,0.00,,,0.00,Wunderground v.1.15,2013-05-24 15:48:00,
2013-05-24 11:54:00,88.3,78.5,30.06,East,82,1.0,4.0,73,0.00,,,0.00,Wunderground v.1.15,2013-05-24 15:54:00,
2013-05-24 11:59:00,88.0,77.8,30.06,ENE,58,1.0,4.0,72,0.00,,,0.00,Wunderground v.1.15,2013-05-24 15:59:00,
2013-05-24 12:05:00,88.3,76.8,30.06,NE,53,2.0,8.0,69,0.00,,,0.00,Wunderground v.1.15,2013-05-24 16:05:00,
2013-05-24 12:10:00,88.3,78.5,30.06,SE,138,2.0,2.0,73,0.00,,,0.00,Wunderground v.1.15,2013-05-24 16:10:00,
2013-05-24 12:15:00,88.3,77.3,30.06,NNE,19,1.0,8.0,70,0.00,,,0.00,Wunderground v.1.15,2013-05-24 16:15:00,
2013-05-24 12:21:00,87.1,76.5,30.06,ENE,68,3.0,8.0,71,0.00,,,0.00,Wunderground v.1.15,2013-05-24 16:21:00,
2013-05-24 12:26:00,87.8,79.7,30.06,NNE,12,2.0,8.0,77,0.00,,,0.00,Wunderground v.1.15,2013-05-24 16:26:00,
2013-05-24 12:32:00,88.3,78.1,30.07,NE,52,1.0,8.0,72,0.00,,,0.00,Wunderground v.1.15,2013-05-24 16:32:00,
2013-05-24 12:37:00,88.8,78.6,30.06,ENE,58,1.0,8.0,72,0.00,,,0.00,Wunderground v.1.15,2013-05-24 16:37:00,
2013-05-24 12:42:00,88.6,78.0,30.06,NE,50,2.0,8.0,71,0.00,,,0.00,Wunderground v.1.15,2013-05-24 16:42:00,
2013-05-24 12:47:00,88.8,78.6,30.06,NNE,25,2.0,8.0,72,0.00,,,0.00,Wunderground v.1.15,2013-05-24 16:47:00,
2013-05-24 12:53:00,88.5,78.3,30.06,NE,55,1.0,8.0,72,0.00,,,0.00,Wunderground v.1.15,2013-05-24 16:53:00,
2013-05-24 12:58:00,88.7,78.1,30.06,NE,46,2.0,8.0,71,0.00,,,0.00,Wunderground v.1.15,2013-05-24 16:58:00,
2013-05-24 13:03:00,88.8,78.2,30.06,ENE,63,2.0,8.0,71,0.00,,,0.00,Wunderground v.1.15,2013-05-24 17:03:00,
2013-05-24 13:09:00,87.8,77.2,30.06,NNE,13,3.0,8.0,71,0.00,,,0.00,Wunderground v.1.15,2013-05-24 17:09:00,
2013-05-24 13:14:00,87.9,76.5,30.05,NNE,32,2.0,8.0,69,0.00,,,0.00,Wunderground v.1.15,2013-05-24 17:14:00,
2013-05-24 13:19:00,88.2,78.0,30.05,WNW,301,2.0,8.0,72,0.00,,,0.00,Wunderground v.1.15,2013-05-24 17:19:00,
2013-05-24 13:25:00,88.5,78.3,30.05,ESE,103,2.0,8.0,72,0.00,,,0.00,Wunderground v.1.15,2013-05-24 17:25:00,
2013-05-24 13:31:00,88.5,78.7,30.05,ESE,120,2.0,8.0,73,0.00,,,0.00,Wunderground v.1.15,2013-05-24 17:31:00,
2013-05-24 13:37:00,88.5,77.5,30.05,ENE,60,2.0,8.0,70,0.00,,,0.00,Wunderground v.1.15,2013-05-24 17:37:00,
2013-05-24 13:42:00,88.9,80.3,30.05,ENE,68,2.0,8.0,76,0.00,,,0.00,Wunderground v.1.15,2013-05-24 17:42:00,
2013-05-24 13:48:00,89.9,80.1,30.05,East,96,1.0,8.0,73,0.00,,,0.00,Wunderground v.1.15,2013-05-24 17:48:00,
2013-05-24 13:53:00,90.0,79.3,30.06,North,10,1.0,8.0,71,0.00,,,0.00,Wunderground v.1.15,2013-05-24 17:53:00,
2013-05-24 13:59:00,90.2,80.4,30.05,ENE,65,2.0,8.0,73,0.00,,,0.00,Wunderground v.1.15,2013-05-24 17:59:00,
2013-05-24 14:05:00,90.2,79.9,30.05,East,94,1.0,9.0,72,0.00,,,0.00,Wunderground v.1.15,2013-05-24 18:05:00,
2013-05-24 14:10:00,90.2,78.6,30.05,ENE,64,1.0,9.0,69,0.00,,,0.00,Wunderground v.1.15,2013-05-24 18:10:00,
2013-05-24 14:15:00,90.4,79.3,30.05,NNE,23,1.0,9.0,70,0.00,,,0.00,Wunderground v.1.15,2013-05-24 18:15:00,
2013-05-24 14:20:00,89.3,79.5,30.06,South,181,2.0,2.0,73,0.00,,,0.00,Wunderground v.1.15,2013-05-24 18:20:00,
2013-05-24 14:26:00,89.7,79.0,30.06,WNW,288,1.0,9.0,71,0.00,,,0.00,Wunderground v.1.15,2013-05-24 18:26:00,
2013-05-24 14:32:00,89.6,78.9,30.05,ESE,113,1.0,9.0,71,0.00,,,0.00,Wunderground v.1.15,2013-05-24 18:32:00,
2013-05-24 14:37:00,88.9,78.3,30.05,ENE,64,2.0,9.0,71,0.00,,,0.00,Wunderground v.1.15,2013-05-24 18:37:00,
2013-05-24 14:43:00,88.6,78.8,30.05,ENE,70,2.0,9.0,73,0.00,,,0.00,Wunderground v.1.15,2013-05-24 18:43:00,
2013-05-24 14:49:00,88.6,78.8,30.05,South,180,2.0,9.0,73,0.00,,,0.00,Wunderground v.1.15,2013-05-24 18:49:00,
2013-05-24 14:55:00,88.2,78.0,30.05,NNE,33,2.0,9.0,72,0.00,,,0.00,Wunderground v.1.15,2013-05-24 18:55:00,
2013-05-24 15:00:00,88.0,78.3,30.05,South,182,2.0,2.0,73,0.00,,,0.00,Wunderground v.1.15,2013-05-24 19:00:00,
2013-05-24 15:05:00,88.1,77.5,30.05,ESE,105,2.0,9.0,71,0.00,,,0.00,Wunderground v.1.15,2013-05-24 19:05:00,
2013-05-24 15:10:00,88.5,77.9,30.05,North,4,2.0,9.0,71,0.00,,,0.00,Wunderground v.1.15,2013-05-24 19:10:00,
2013-05-24 15:15:00,89.0,77.9,30.05,NNE,25,2.0,9.0,70,0.00,,,0.00,Wunderground v.1.15,2013-05-24 19:15:00,
2013-05-24 15:21:00,88.1,76.2,30.05,NE,53,3.0,9.0,68,0.00,,,0.00,Wunderground v.1.15,2013-05-24 19:21:00,
2013-05-24 15:26:00,87.6,76.2,30.05,NNE,29,4.0,9.0,69,0.00,,,0.00,Wunderground v.1.15,2013-05-24 19:26:00,
2013-05-24 15:31:00,87.5,77.4,30.05,SE,124,3.0,9.0,72,0.00,,,0.00,Wunderground v.1.15,2013-05-24 19:31:00,
2013-05-24 15:37:00,88.0,77.8,30.05,ENE,63,2.0,9.0,72,0.00,,,0.00,Wunderground v.1.15,2013-05-24 19:37:00,
2013-05-24 15:42:00,89.2,77.7,30.04,East,85,1.0,9.0,69,0.00,,,0.00,Wunderground v.1.15,2013-05-24 19:42:00,
2013-05-24 15:48:00,89.3,75.5,30.05,ESE,119,1.0,9.0,64,0.00,,,0.00,Wunderground v.1.15,2013-05-24 19:48:00,
2013-05-24 15:54:00,89.7,76.8,30.04,NE,42,1.0,9.0,66,0.00,,,0.00,Wunderground v.1.15,2013-05-24 19:54:00,
2013-05-24 16:00:00,90.1,77.2,30.04,NNW,340,1.0,1.0,66,0.00,,,0.00,Wunderground v.1.15,2013-05-24 20:00:00,
2013-05-24 16:06:00,89.4,74.7,30.04,North,4,2.0,8.0,62,0.00,,,0.00,Wunderground v.1.15,2013-05-24 20:06:00,
2013-05-24 16:12:00,89.2,75.0,30.04,NNE,22,2.0,8.0,63,0.00,,,0.00,Wunderground v.1.15,2013-05-24 20:12:00,
2013-05-24 16:17:00,89.2,75.0,30.04,North,358,1.0,8.0,63,0.00,,,0.00,Wunderground v.1.15,2013-05-24 20:17:00,
2013-05-24 16:23:00,88.7,74.5,30.04,SE,142,2.0,8.0,63,0.00,,,0.00,Wunderground v.1.15,2013-05-24 20:23:00,
2013-05-24 16:28:00,89.6,74.9,30.04,SSE,155,1.0,8.0,62,0.00,,,0.00,Wunderground v.1.15,2013-05-24 20:28:00,
2013-05-24 16:34:00,89.1,72.9,30.04,ENE,73,2.0,8.0,59,0.00,,,0.00,Wunderground v.1.15,2013-05-24 20:34:00,
2013-05-24 16:39:00,89.1,73.9,30.04,SE,143,2.0,8.0,61,0.00,,,0.00,Wunderground v.1.15,2013-05-24 20:39:00,
2013-05-24 16:45:00,89.2,73.0,30.04,NE,53,1.0,8.0,59,0.00,,,0.00,Wunderground v.1.15,2013-05-24 20:45:00,
2013-05-24 16:50:00,88.1,71.5,30.04,ENE,62,2.0,2.0,58,0.00,,,0.00,Wunderground v.1.15,2013-05-24 20:50:00,
2013-05-24 16:56:00,88.8,72.1,30.04,SE,135,2.0,8.0,58,0.00,,,0.00,Wunderground v.1.15,2013-05-24 20:56:00,
2013-05-24 17:01:00,89.0,72.3,30.04,ENE,67,1.0,8.0,58,0.00,,,0.00,Wunderground v.1.15,2013-05-24 21:01:00,
2013-05-24 17:07:00,89.4,72.2,30.03,ENE,63,1.0,8.0,57,0.00,,,0.00,Wunderground v.1.15,2013-05-24 21:07:00,
2013-05-24 17:12:00,88.9,71.2,30.03,NNE,32,1.0,8.0,56,0.00,,,0.00,Wunderground v.1.15,2013-05-24 21:12:00,
2013-05-24 17:18:00,89.4,71.0,30.04,NE,37,2.0,7.0,54,0.00,,,0.00,weatherlink.com 1.10,2013-05-24 21:18:00,
2013-05-24 17:23:00,88.8,70.5,30.03,NE,53,2.0,8.0,55,0.00,,,0.00,Wunderground v.1.15,2013-05-24 21:23:00,
2013-05-24 17:29:00,88.6,70.9,30.03,SE,135,2.0,8.0,56,0.00,,,0.00,Wunderground v.1.15,2013-05-24 21:29:00,
2013-05-24 17:34:00,88.4,70.7,30.03,NE,53,2.0,8.0,56,0.00,,,0.00,Wunderground v.1.15,2013-05-24 21:34:00,
2013-05-24 17:40:00,87.9,70.8,30.03,East,98,2.0,2.0,57,0.00,,,0.00,Wunderground v.1.15,2013-05-24 21:40:00,
2013-05-24 17:46:00,88.1,71.5,30.03,SE,146,1.0,8.0,58,0.00,,,0.00,Wunderground v.1.15,2013-05-24 21:46:00,
2013-05-24 17:52:00,88.3,70.1,30.03,East,96,1.0,8.0,55,0.00,,,0.00,Wunderground v.1.15,2013-05-24 21:52:00,
2013-05-24 17:57:00,87.7,70.1,30.03,East,90,1.0,8.0,56,0.00,,,0.00,Wunderground v.1.15,2013-05-24 21:57:00,
2013-05-24 18:03:00,87.1,70.0,30.03,ENE,60,2.0,11.0,57,0.00,,,0.00,Wunderground v.1.15,2013-05-24 22:03:00,
2013-05-24 18:08:00,86.8,69.7,30.03,ENE,62,2.0,11.0,57,0.00,,,0.00,Wunderground v.1.15,2013-05-24 22:08:00,
2013-05-24 18:14:00,86.8,69.7,30.03,West,266,1.0,11.0,57,0.00,,,0.00,Wunderground v.1.15,2013-05-24 22:14:00,
2013-05-24 18:19:00,86.8,69.7,30.03,North,4,1.0,11.0,57,0.00,,,0.00,Wunderground v.1.15,2013-05-24 22:19:00,
2013-05-24 18:24:00,86.1,68.0,30.03,ESE,107,1.0,11.0,55,0.00,,,0.00,Wunderground v.1.15,2013-05-24 22:24:00,
2013-05-24 18:30:00,85.4,68.4,30.03,NE,49,3.0,11.0,57,0.00,,,0.00,Wunderground v.1.15,2013-05-24 22:30:00,
2013-05-24 18:35:00,85.4,68.4,30.03,ENE,73,3.0,11.0,57,0.00,,,0.00,Wunderground v.1.15,2013-05-24 22:35:00,
2013-05-24 18:40:00,85.1,68.2,30.03,NNE,30,2.0,11.0,57,0.00,,,0.00,Wunderground v.1.15,2013-05-24 22:40:00,
2013-05-24 18:46:00,84.6,68.2,30.03,NE,53,2.0,11.0,58,0.00,,,0.00,Wunderground v.1.15,2013-05-24 22:46:00,
2013-05-24 18:51:00,84.5,68.6,30.03,SE,139,1.0,11.0,59,0.00,,,0.00,Wunderground v.1.15,2013-05-24 22:51:00,
2013-05-24 18:56:00,84.1,68.2,30.03,NE,53,2.0,11.0,59,0.00,,,0.00,Wunderground v.1.15,2013-05-24 22:56:00,
2013-05-24 19:02:00,83.7,67.8,30.03,ENE,71,2.0,11.0,59,0.00,,,0.00,Wunderground v.1.15,2013-05-24 23:02:00,
2013-05-24 19:07:00,83.4,67.6,30.03,NE,44,1.0,11.0,59,0.00,,,0.00,Wunderground v.1.15,2013-05-24 23:07:00,
2013-05-24 19:13:00,83.3,68.0,30.03,NNW,335,2.0,11.0,60,0.00,,,0.00,Wunderground v.1.15,2013-05-24 23:13:00,
2013-05-24 19:19:00,83.1,67.3,30.03,NE,55,2.0,11.0,59,0.00,,,0.00,Wunderground v.1.15,2013-05-24 23:19:00,
2013-05-24 19:25:00,83.0,67.2,30.03,NE,41,1.0,11.0,59,0.00,,,0.00,Wunderground v.1.15,2013-05-24 23:25:00,
2013-05-24 19:31:00,82.8,67.5,30.03,NE,51,1.0,11.0,60,0.00,,,0.00,Wunderground v.1.15,2013-05-24 23:31:00,
2013-05-24 19:36:00,82.7,67.4,30.03,ENE,73,1.0,11.0,60,0.00,,,0.00,Wunderground v.1.15,2013-05-24 23:36:00,
2013-05-24 19:41:00,82.6,67.8,30.03,East,88,0.0,11.0,61,0.00,,,0.00,Wunderground v.1.15,2013-05-24 23:41:00,
2013-05-24 19:46:00,82.4,68.1,30.03,NE,53,0.0,11.0,62,0.00,,,0.00,Wunderground v.1.15,2013-05-24 23:46:00,
2013-05-24 19:52:00,82.1,67.8,30.03,NNE,23,0.0,11.0,62,0.00,,,0.00,Wunderground v.1.15,2013-05-24 23:52:00,
2013-05-24 19:57:00,82.0,68.0,30.03,NNE,16,0.0,3.0,62,0.00,,,0.00,weatherlink.com 1.10,2013-05-24 23:57:00,
2013-05-24 20:03:00,81.7,67.9,30.03,NE,56,1.0,9.0,63,0.00,,,0.00,Wunderground v.1.15,2013-05-25 00:03:00,
2013-05-24 20:08:00,81.5,68.1,30.03,NNE,30,1.0,9.0,64,0.00,,,0.00,Wunderground v.1.15,2013-05-25 00:08:00,
2013-05-24 20:13:00,81.3,68.4,30.03,NE,41,0.0,9.0,65,0.00,,,0.00,Wunderground v.1.15,2013-05-25 00:13:00,
2013-05-24 20:19:00,80.9,68.0,30.03,NE,40,0.0,9.0,65,0.00,,,0.00,Wunderground v.1.15,2013-05-25 00:19:00,
2013-05-24 20:24:00,80.5,68.1,30.04,NE,41,0.0,9.0,66,0.00,,,0.00,Wunderground v.1.15,2013-05-25 00:24:00,
2013-05-24 20:29:00,80.2,68.2,30.04,NNW,348,0.0,9.0,67,0.00,,,0.00,Wunderground v.1.15,2013-05-25 00:29:00,
2013-05-24 20:35:00,80.0,68.5,30.04,NE,46,0.0,9.0,68,0.00,,,0.00,Wunderground v.1.15,2013-05-25 00:35:00,
2013-05-24 20:40:00,79.7,68.2,30.04,NE,46,0.0,9.0,68,0.00,,,0.00,Wunderground v.1.15,2013-05-25 00:40:00,
2013-05-24 20:45:00,79.5,68.0,30.04,NW,310,0.0,9.0,68,0.00,,,0.00,Wunderground v.1.15,2013-05-25 00:45:00,
2013-05-24 20:50:00,79.2,68.1,30.04,NE,51,0.0,9.0,69,0.00,,,0.00,Wunderground v.1.15,2013-05-25 00:50:00,
2013-05-24 20:55:00,79.3,68.2,30.04,WNW,298,0.0,9.0,69,0.00,,,0.00,Wunderground v.1.15,2013-05-25 00:55:00,
2013-05-24 21:01:00,79.3,68.2,30.04,NW,311,0.0,9.0,69,0.00,,,0.00,Wunderground v.1.15,2013-05-25 01:01:00,
2013-05-24 21:07:00,79.0,68.4,30.04,NE,49,0.0,9.0,70,0.00,,,0.00,Wunderground v.1.15,2013-05-25 01:07:00,
2013-05-24 21:12:00,78.7,68.5,30.04,NE,49,0.0,9.0,71,0.00,,,0.00,Wunderground v.1.15,2013-05-25 01:12:00,
2013-05-24 21:17:00,78.5,68.3,30.04,East,82,0.0,9.0,71,0.00,,,0.00,Wunderground v.1.15,2013-05-25 01:17:00,
2013-05-24 21:23:00,78.4,68.6,30.04,East,81,0.0,9.0,72,0.00,,,0.00,Wunderground v.1.15,2013-05-25 01:23:00,
2013-05-24 21:28:00,78.3,68.5,30.04,East,79,0.0,9.0,72,0.00,,,0.00,Wunderground v.1.15,2013-05-25 01:28:00,
2013-05-24 21:33:00,78.3,69.0,30.05,NE,39,0.0,1.0,73,0.00,,,0.00,weatherlink.com 1.10,2013-05-25 01:33:00,
2013-05-24 21:39:00,78.3,68.9,30.05,ENE,75,0.0,9.0,73,0.00,,,0.00,Wunderground v.1.15,2013-05-25 01:39:00,
2013-05-24 21:44:00,78.1,69.1,30.05,NE,50,0.0,9.0,74,0.00,,,0.00,Wunderground v.1.15,2013-05-25 01:44:00,
2013-05-24 21:49:00,77.9,69.0,30.05,NE,50,0.0,2.0,74,0.00,,,0.00,weatherlink.com 1.10,2013-05-25 01:49:00,
2013-05-24 21:55:00,77.8,69.2,30.05,NE,50,0.0,9.0,75,0.00,,,0.00,Wunderground v.1.15,2013-05-25 01:55:00,
2013-05-24 22:00:00,77.6,69.0,30.05,NE,50,0.0,12.0,75,0.00,,,0.00,Wunderground v.1.15,2013-05-25 02:00:00,
2013-05-24 22:05:00,77.5,69.0,30.05,NE,50,0.0,1.0,76,0.00,,,0.00,weatherlink.com 1.10,2013-05-25 02:05:00,
2013-05-24 22:11:00,77.2,69.0,30.06,NE,50,0.0,12.0,76,0.00,,,0.00,Wunderground v.1.15,2013-05-25 02:11:00,
2013-05-24 22:16:00,76.9,68.8,30.06,NE,50,0.0,12.0,76,0.00,,,0.00,Wunderground v.1.15,2013-05-25 02:16:00,
2013-05-24 22:21:00,76.7,69.0,30.06,NE,50,0.0,1.0,77,0.00,,,0.00,weatherlink.com 1.10,2013-05-25 02:21:00,
2013-05-24 22:27:00,76.5,68.7,30.06,NE,50,0.0,12.0,77,0.00,,,0.00,Wunderground v.1.15,2013-05-25 02:27:00,
2013-05-24 22:32:00,76.4,69.0,30.06,NE,50,0.0,12.0,78,0.00,,,0.00,Wunderground v.1.15,2013-05-25 02:32:00,
2013-05-24 22:37:00,76.4,69.0,30.06,ESE,105,0.0,1.0,78,0.00,,,0.00,weatherlink.com 1.10,2013-05-25 02:37:00,
2013-05-24 22:43:00,76.3,69.3,30.06,ESE,105,0.0,12.0,79,0.00,,,0.00,Wunderground v.1.15,2013-05-25 02:43:00,
2013-05-24 22:48:00,76.0,69.0,30.06,ESE,105,0.0,12.0,79,0.00,,,0.00,Wunderground v.1.15,2013-05-25 02:48:00,
2013-05-24 22:53:00,75.8,69.2,30.06,ESE,105,0.0,12.0,80,0.00,,,0.00,Wunderground v.1.15,2013-05-25 02:53:00,
2013-05-24 22:59:00,75.7,69.1,30.07,East,101,0.0,12.0,80,0.00,,,0.00,Wunderground v.1.15,2013-05-25 02:59:00,
2013-05-24 23:04:00,75.9,69.3,30.07,East,94,0.0,12.0,80,0.00,,,0.00,Wunderground v.1.15,2013-05-25 03:04:00,
2013-05-24 23:09:00,76.2,69.6,30.07,East,95,0.0,12.0,80,0.00,,,0.00,Wunderground v.1.15,2013-05-25 03:09:00,
2013-05-24 23:15:00,76.7,69.7,30.07,NE,49,0.0,12.0,79,0.00,,,0.00,Wunderground v.1.15,2013-05-25 03:15:00,
2013-05-24 23:20:00,77.0,70.0,30.07,NNE,25,0.0,12.0,79,0.00,,,0.00,Wunderground v.1.15,2013-05-25 03:20:00,
2013-05-24 23:26:00,77.3,70.3,30.08,NE,56,0.0,12.0,79,0.00,,,0.00,Wunderground v.1.15,2013-05-25 03:26:00,
2013-05-24 23:31:00,77.5,70.5,30.08,NE,34,0.0,12.0,79,0.00,,,0.00,Wunderground v.1.15,2013-05-25 03:31:00,
2013-05-24 23:36:00,77.7,70.7,30.08,ENE,78,0.0,12.0,79,0.00,,,0.00,Wunderground v.1.15,2013-05-25 03:36:00,
2013-05-24 23:41:00,77.8,70.4,30.08,ENE,63,0.0,12.0,78,0.00,,,0.00,Wunderground v.1.15,2013-05-25 03:41:00,
2013-05-24 23:46:00,77.7,70.7,30.08,ENE,57,0.0,12.0,79,0.00,,,0.00,Wunderground v.1.15,2013-05-25 03:46:00,
2013-05-24 23:52:00,77.7,71.0,30.08,NE,37,0.0,12.0,80,0.00,,,0.00,Wunderground v.1.15,2013-05-25 03:52:00,
2013-05-24 23:57:00,77.9,70.9,30.08,NNE,28,0.0,12.0,79,0.00,,,0.00,Wunderground v.1.15,2013-05-25 03:57:00,